createdAt,value
2022-09-01T00:00:03.189Z,18.15
2022-09-01T00:02:33.485Z,18.09
2022-09-01T00:05:00.460Z,18.00
2022-09-01T00:07:32.029Z,18.10
2022-09-01T00:09:59.876Z,17.95
2022-09-01T00:12:26.971Z,18.14
2022-09-01T00:14:54.137Z,17.89
2022-09-01T00:17:20.991Z,18.11
2022-09-01T00:19:47.707Z,18.10
2022-09-01T00:22:14.478Z,17.88
2022-09-01T00:24:41.236Z,17.84
2022-09-01T00:27:08.011Z,18.09
2022-09-01T00:29:36.152Z,18.09
2022-09-01T00:32:03.670Z,18.05
2022-09-01T00:34:30.457Z,17.92
2022-09-01T00:36:57.327Z,17.92
2022-09-01T00:39:24.042Z,17.97
2022-09-01T00:41:51.352Z,17.94
2022-09-01T00:44:29.619Z,17.88
2022-09-01T00:46:58.604Z,17.87
2022-09-01T00:49:38.787Z,17.85
2022-09-01T00:52:15.721Z,17.75
2022-09-01T00:54:47.866Z,17.84
2022-09-01T00:57:15.477Z,17.80
2022-09-01T00:59:49.983Z,17.72
2022-09-01T01:02:16.750Z,17.69
2022-09-01T01:04:43.754Z,17.73
2022-09-01T01:07:12.206Z,17.75
2022-09-01T01:09:43.927Z,17.70
2022-09-01T01:12:18.362Z,17.53
2022-09-01T01:14:52.126Z,17.66
2022-09-01T01:17:21.490Z,17.67
2022-09-01T01:20:13.091Z,17.66
2022-09-01T01:23:10.734Z,17.52
2022-09-01T01:25:57.350Z,17.70
2022-09-01T01:28:35.673Z,17.54
2022-09-01T01:31:14.550Z,17.55
2022-09-01T01:33:45.097Z,17.56
2022-09-01T01:36:21.512Z,17.55
2022-09-01T01:38:49.510Z,17.55
2022-09-01T01:41:19.765Z,17.39
2022-09-01T01:43:48.200Z,17.46
2022-09-01T01:46:19.030Z,17.31
2022-09-01T01:48:47.206Z,17.39
2022-09-01T01:51:20.100Z,17.38
2022-09-01T01:53:52.555Z,17.43
2022-09-01T02:00:34.654Z,17.24
2022-09-01T02:03:02.616Z,17.43
2022-09-01T02:05:32.349Z,17.40
2022-09-01T02:08:04.048Z,17.28
2022-09-01T02:10:34.436Z,17.29
2022-09-01T02:13:04.651Z,17.26
2022-09-01T02:15:43.697Z,17.23
2022-09-01T02:18:14.258Z,17.18
2022-09-01T02:20:41.901Z,17.11
2022-09-01T02:23:11.506Z,17.13
2022-09-01T02:28:54.231Z,16.46
2022-09-01T02:31:27.895Z,16.85
2022-09-01T02:33:55.742Z,16.60
2022-09-01T02:36:22.605Z,16.76
2022-09-01T02:38:53.281Z,16.59
2022-09-01T02:41:27.113Z,16.71
2022-09-01T02:43:54.428Z,16.56
2022-09-01T02:46:24.919Z,16.73
2022-09-01T02:48:53.510Z,16.49
2022-09-01T02:51:25.625Z,16.59
2022-09-01T02:53:53.004Z,16.72
2022-09-01T02:56:25.608Z,16.62
2022-09-01T02:58:53.947Z,16.76
2022-09-01T03:01:29.387Z,16.78
2022-09-01T03:04:00.357Z,16.78
2022-09-01T03:06:28.334Z,16.78
2022-09-01T03:09:00.121Z,16.75
2022-09-01T03:11:29.474Z,16.59
2022-09-01T03:13:56.874Z,16.65
2022-09-01T03:16:23.807Z,16.65
2022-09-01T03:18:52.004Z,16.67
2022-09-01T03:21:21.126Z,16.70
2022-09-01T03:23:49.549Z,16.66
2022-09-01T03:26:19.381Z,16.64
2022-09-01T03:28:46.902Z,16.54
2022-09-01T03:31:14.530Z,16.64
2022-09-01T03:33:42.530Z,16.61
2022-09-01T03:36:19.620Z,16.49
2022-09-01T03:38:49.793Z,16.59
2022-09-01T03:41:22.400Z,16.55
2022-09-01T03:43:49.930Z,16.55
2022-09-01T03:46:24.325Z,16.51
2022-09-01T03:48:55.323Z,16.49
2022-09-01T03:51:23.652Z,16.46
2022-09-01T03:53:54.906Z,16.46
2022-09-01T03:56:27.312Z,16.35
2022-09-01T03:58:57.605Z,16.47
2022-09-01T04:01:43.383Z,16.37
2022-09-01T04:04:14.860Z,16.42
2022-09-01T04:06:43.518Z,16.41
2022-09-01T04:09:10.908Z,16.27
2022-09-01T04:11:45.866Z,16.33
2022-09-01T04:14:15.819Z,16.29
2022-09-01T04:17:02.145Z,16.03
2022-09-01T04:19:30.505Z,16.23
2022-09-01T04:22:00.415Z,16.25
2022-09-01T04:24:33.089Z,16.07
2022-09-01T04:27:02.792Z,16.17
2022-09-01T04:29:31.900Z,16.25
2022-09-01T04:32:03.617Z,16.25
2022-09-01T04:34:37.470Z,16.33
2022-09-01T04:37:13.191Z,16.37
2022-09-01T04:39:40.674Z,16.24
2022-09-01T04:42:09.154Z,16.46
2022-09-01T04:44:36.640Z,16.49
2022-09-01T04:47:10.874Z,16.48
2022-09-01T04:49:37.849Z,16.31
2022-09-01T04:52:04.975Z,16.21
2022-09-01T04:54:32.842Z,16.33
2022-09-01T04:57:00.290Z,16.30
2022-09-01T04:59:30.550Z,16.45
2022-09-01T05:02:01.201Z,16.33
2022-09-01T05:04:33.841Z,16.71
2022-09-01T05:07:02.776Z,16.68
2022-09-01T05:09:38.229Z,16.82
2022-09-01T05:12:27.586Z,16.75
2022-09-01T05:14:55.856Z,16.59
2022-09-01T05:17:24.554Z,16.65
2022-09-01T05:19:51.332Z,16.42
2022-09-01T05:22:22.171Z,16.49
2022-09-01T05:24:56.023Z,16.40
2022-09-01T05:27:23.806Z,16.44
2022-09-01T05:29:50.671Z,16.39
2022-09-01T05:32:17.734Z,16.59
2022-09-01T05:34:46.061Z,16.56
2022-09-01T05:37:16.164Z,16.70
2022-09-01T05:39:42.887Z,16.73
2022-09-01T05:42:10.086Z,16.53
2022-09-01T05:44:44.886Z,16.63
2022-09-01T05:47:21.076Z,16.83
2022-09-01T05:49:50.214Z,16.85
2022-09-01T05:52:17.329Z,16.88
2022-09-01T05:54:45.999Z,16.73
2022-09-01T05:57:33.192Z,16.84
2022-09-01T06:00:00.441Z,16.84
2022-09-01T06:02:27.859Z,17.09
2022-09-01T06:04:57.212Z,17.17
2022-09-01T06:07:28.760Z,17.33
2022-09-01T06:09:59.764Z,17.47
2022-09-01T06:12:28.040Z,17.55
2022-09-01T06:14:55.913Z,17.62
2022-09-01T06:17:26.032Z,17.65
2022-09-01T06:19:56.799Z,17.65
2022-09-01T06:22:26.713Z,17.78
2022-09-01T06:24:58.214Z,17.76
2022-09-01T06:27:28.392Z,18.10
2022-09-01T06:29:56.213Z,18.10
2022-09-01T06:32:25.879Z,18.17
2022-09-01T06:34:54.006Z,18.08
2022-09-01T06:37:22.411Z,18.34
2022-09-01T06:39:52.170Z,18.34
2022-09-01T06:42:19.943Z,18.45
2022-09-01T06:44:52.620Z,18.30
2022-09-01T06:47:19.730Z,18.43
2022-09-01T06:49:46.548Z,18.64
2022-09-01T06:52:20.811Z,18.63
2022-09-01T06:54:48.659Z,18.90
2022-09-01T07:00:19.236Z,19.11
2022-09-01T07:02:53.337Z,18.89
2022-09-01T07:06:02.612Z,19.18
2022-09-01T07:12:25.085Z,18.96
2022-09-01T07:17:43.175Z,19.29
2022-09-01T07:20:27.269Z,19.27
2022-09-01T07:26:00.961Z,19.49
2022-09-01T07:28:40.540Z,19.92
2022-09-01T07:39:48.590Z,20.44
2022-09-01T07:42:30.322Z,19.49
2022-09-01T07:45:59.770Z,20.38
2022-09-01T07:48:36.669Z,20.26
2022-09-01T07:51:36.473Z,20.05
2022-09-01T07:54:05.574Z,20.17
2022-09-01T07:56:36.255Z,20.31
2022-09-01T07:59:07.041Z,20.50
2022-09-01T08:01:35.910Z,20.25
2022-09-01T08:04:03.459Z,20.30
2022-09-01T08:06:37.874Z,20.73
2022-09-01T08:09:37.469Z,20.64
2022-09-01T08:12:07.682Z,20.88
2022-09-01T08:14:39.256Z,21.80
2022-09-01T08:19:55.374Z,22.44
2022-09-01T08:22:42.050Z,22.13
2022-09-01T08:25:24.213Z,22.64
2022-09-01T08:27:59.806Z,22.72
2022-09-01T08:30:27.850Z,22.90
2022-09-01T08:32:55.054Z,23.14
2022-09-01T08:35:23.032Z,23.30
2022-09-01T08:37:49.802Z,23.37
2022-09-01T08:40:20.542Z,23.90
2022-09-01T08:43:02.614Z,24.16
2022-09-01T08:45:38.198Z,24.31
2022-09-01T08:49:09.683Z,24.32
2022-09-01T08:51:20.917Z,24.35
2022-09-01T08:54:20.139Z,24.18
2022-09-01T08:56:59.226Z,24.46
2022-09-01T08:59:46.288Z,24.85
2022-09-01T09:02:52.885Z,24.59
2022-09-01T09:05:22.887Z,23.96
2022-09-01T09:08:08.747Z,23.37
2022-09-01T09:11:08.299Z,24.41
2022-09-01T09:13:57.293Z,24.23
2022-09-01T09:16:40.946Z,23.76
2022-09-01T09:19:19.607Z,24.88
2022-09-01T09:21:48.981Z,25.41
2022-09-01T09:24:47.218Z,24.69
2022-09-01T09:27:21.474Z,25.57
2022-09-01T09:29:57.274Z,25.61
2022-09-01T09:33:15.039Z,25.85
2022-09-01T09:35:41.935Z,25.76
2022-09-01T09:38:19.029Z,26.12
2022-09-01T09:41:18.826Z,25.88
2022-09-01T09:44:19.269Z,25.23
2022-09-01T09:46:48.770Z,24.46
2022-09-01T09:49:36.049Z,24.08
2022-09-01T09:52:10.661Z,25.18
2022-09-01T09:54:41.159Z,25.73
2022-09-01T09:57:16.048Z,25.89
2022-09-01T10:00:01.055Z,25.38
2022-09-01T10:02:28.913Z,25.66
2022-09-01T10:04:57.057Z,26.28
2022-09-01T10:07:25.818Z,26.61
2022-09-01T10:09:55.504Z,26.46
2022-09-01T10:12:25.222Z,25.51
2022-09-01T10:14:58.682Z,24.92
2022-09-01T10:17:35.957Z,24.27
2022-09-01T10:20:12.205Z,24.34
2022-09-01T10:22:40.069Z,24.24
2022-09-01T10:25:10.346Z,24.14
2022-09-01T10:27:42.009Z,24.11
2022-09-01T10:30:18.432Z,24.32
2022-09-01T10:33:19.860Z,24.60
2022-09-01T10:35:52.094Z,24.90
2022-09-01T10:38:22.865Z,25.11
2022-09-01T10:41:07.781Z,25.63
2022-09-01T10:43:48.927Z,25.46
2022-09-01T10:46:25.891Z,25.36
2022-09-01T10:48:57.327Z,25.52
2022-09-01T10:52:02.680Z,25.66
2022-09-01T10:54:50.901Z,25.93
2022-09-01T10:57:43.599Z,26.01
2022-09-01T11:00:36.907Z,25.60
2022-09-01T11:06:13.164Z,25.37
2022-09-01T11:08:50.763Z,25.12
2022-09-01T11:11:33.747Z,25.71
2022-09-01T11:14:01.342Z,25.76
2022-09-01T11:16:50.006Z,25.63
2022-09-01T11:19:45.666Z,25.85
2022-09-01T11:22:15.406Z,26.07
2022-09-01T11:24:42.437Z,26.02
2022-09-01T11:27:12.337Z,26.54
2022-09-01T11:29:58.749Z,27.22
2022-09-01T11:32:32.405Z,27.49
2022-09-01T11:35:04.801Z,26.63
2022-09-01T11:37:33.258Z,26.53
2022-09-01T11:40:07.357Z,25.97
2022-09-01T11:42:41.030Z,26.15
2022-09-01T11:45:12.616Z,26.29
2022-09-01T11:47:52.782Z,25.71
2022-09-01T11:50:56.682Z,25.27
2022-09-01T11:53:24.180Z,26.47
2022-09-01T11:55:54.249Z,26.91
2022-09-01T11:58:30.857Z,27.58
2022-09-01T12:01:19.922Z,27.84
2022-09-01T12:03:48.731Z,27.46
2022-09-01T12:06:23.567Z,27.44
2022-09-01T12:09:02.298Z,27.75
2022-09-01T12:11:32.632Z,27.61
2022-09-01T12:14:01.006Z,28.31
2022-09-01T12:16:29.317Z,28.61
2022-09-01T12:18:59.096Z,28.58
2022-09-01T12:21:25.905Z,29.24
2022-09-01T12:23:53.125Z,29.19
2022-09-01T12:26:29.137Z,29.54
2022-09-01T12:28:57.002Z,29.71
2022-09-01T12:31:26.041Z,28.72
2022-09-01T12:33:56.325Z,28.42
2022-09-01T12:36:30.787Z,27.78
2022-09-01T12:39:17.528Z,27.43
2022-09-01T12:41:46.232Z,26.81
2022-09-01T12:44:30.943Z,27.12
2022-09-01T12:47:33.432Z,26.55
2022-09-01T12:50:03.456Z,26.34
2022-09-01T12:52:32.971Z,26.19
2022-09-01T12:54:59.741Z,27.09
2022-09-01T12:57:32.238Z,27.65
2022-09-01T13:00:11.747Z,28.18
2022-09-01T13:02:43.025Z,28.60
2022-09-01T13:05:42.095Z,28.51
2022-09-01T13:08:10.705Z,27.75
2022-09-01T13:11:04.698Z,28.38
2022-09-01T13:13:31.927Z,28.68
2022-09-01T13:16:12.854Z,28.85
2022-09-01T13:21:30.409Z,29.56
2022-09-01T13:23:59.953Z,29.26
2022-09-01T13:26:26.837Z,29.21
2022-09-01T13:28:53.880Z,29.38
2022-09-01T13:31:28.954Z,28.77
2022-09-01T13:34:22.588Z,28.62
2022-09-01T13:36:47.038Z,28.68
2022-09-01T13:39:15.873Z,29.03
2022-09-01T13:41:43.144Z,28.89
2022-09-01T13:44:11.635Z,28.45
2022-09-01T13:52:13.165Z,28.54
2022-09-01T13:54:40.234Z,28.46
2022-09-01T13:57:06.968Z,28.16
2022-09-01T13:59:33.749Z,28.28
2022-09-01T14:02:01.589Z,28.43
2022-09-01T14:04:28.636Z,28.58
2022-09-01T14:06:55.453Z,29.01
2022-09-01T14:09:23.483Z,29.15
2022-09-01T14:11:53.779Z,28.88
2022-09-01T14:14:20.757Z,28.71
2022-09-01T14:16:47.764Z,29.05
2022-09-01T14:19:15.762Z,29.05
2022-09-01T14:21:43.124Z,28.77
2022-09-01T14:24:09.958Z,28.81
2022-09-01T14:26:36.739Z,28.58
2022-09-01T14:29:03.596Z,28.67
2022-09-01T14:31:30.475Z,29.16
2022-09-01T14:33:57.296Z,29.00
2022-09-01T14:36:26.844Z,28.88
2022-09-01T14:38:54.142Z,28.35
2022-09-01T14:41:24.191Z,27.78
2022-09-01T14:43:57.620Z,27.36
2022-09-01T14:46:26.789Z,27.25
2022-09-01T14:48:53.634Z,27.03
2022-09-01T14:51:25.773Z,26.87
2022-09-01T14:53:54.403Z,26.52
2022-09-01T14:56:22.549Z,26.03
2022-09-01T14:58:50.842Z,25.58
2022-09-01T15:01:33.776Z,25.64
2022-09-01T15:04:01.564Z,25.63
2022-09-01T15:06:28.479Z,25.73
2022-09-01T15:08:55.368Z,25.60
2022-09-01T15:11:22.121Z,25.54
2022-09-01T15:13:52.099Z,25.50
2022-09-01T15:16:21.993Z,25.73
2022-09-01T15:18:48.923Z,25.64
2022-09-01T15:21:25.140Z,25.83
2022-09-01T15:23:53.942Z,25.86
2022-09-01T15:26:21.652Z,25.96
2022-09-01T15:28:50.068Z,26.13
2022-09-01T15:31:18.964Z,25.99
2022-09-01T15:33:56.531Z,25.67
2022-09-01T15:36:26.364Z,25.78
2022-09-01T15:38:53.195Z,25.48
2022-09-01T15:41:24.613Z,25.45
2022-09-01T15:43:51.647Z,25.22
2022-09-01T15:46:19.478Z,25.07
2022-09-01T15:48:46.740Z,25.08
2022-09-01T15:51:22.172Z,25.16
2022-09-01T15:53:57.375Z,25.13
2022-09-01T15:56:24.278Z,25.15
2022-09-01T15:59:00.753Z,25.22
2022-09-01T16:01:30.444Z,25.29
2022-09-01T16:03:57.699Z,25.39
2022-09-01T16:07:03.219Z,25.55
2022-09-01T16:09:30.060Z,25.56
2022-09-01T16:11:56.848Z,25.35
2022-09-01T16:14:23.835Z,25.52
2022-09-01T16:17:19.770Z,25.50
2022-09-01T16:20:10.814Z,25.53
2022-09-01T16:22:48.059Z,25.42
2022-09-01T16:25:42.929Z,25.41
2022-09-01T16:28:31.222Z,25.37
2022-09-01T16:31:21.302Z,25.45
2022-09-01T16:33:51.407Z,25.38
2022-09-01T16:36:33.006Z,25.36
2022-09-01T16:39:07.000Z,25.21
2022-09-01T16:41:37.732Z,25.22
2022-09-01T16:44:19.709Z,25.04
2022-09-01T16:47:09.838Z,24.97
2022-09-01T16:49:50.777Z,24.77
2022-09-01T16:52:17.479Z,24.68
2022-09-01T16:54:56.105Z,26.17
2022-09-01T16:58:08.256Z,27.53
2022-09-01T17:00:42.393Z,28.06
2022-09-01T17:03:19.394Z,28.00
2022-09-01T17:06:21.595Z,27.83
2022-09-01T17:08:56.568Z,27.83
2022-09-01T17:11:49.285Z,26.97
2022-09-01T17:14:25.419Z,26.75
2022-09-01T17:16:57.041Z,26.31
2022-09-01T17:19:25.878Z,26.07
2022-09-01T17:22:14.485Z,25.61
2022-09-01T17:24:43.705Z,24.89
2022-09-01T17:27:18.359Z,24.45
2022-09-01T17:29:48.050Z,24.41
2022-09-01T17:32:34.678Z,24.28
2022-09-01T17:35:07.753Z,24.02
2022-09-01T17:37:39.997Z,23.86
2022-09-01T17:40:15.283Z,23.64
2022-09-01T17:43:01.032Z,23.50
2022-09-01T17:45:45.467Z,23.33
2022-09-01T17:48:27.050Z,22.92
2022-09-01T17:50:59.425Z,22.91
2022-09-01T17:54:00.433Z,22.77
2022-09-01T17:56:53.722Z,22.72
2022-09-01T17:59:41.262Z,22.63
2022-09-01T18:02:25.286Z,22.52
2022-09-01T18:05:00.530Z,22.37
2022-09-01T18:07:57.039Z,22.30
2022-09-01T18:10:45.838Z,22.15
2022-09-01T18:13:30.690Z,21.95
2022-09-01T18:16:00.473Z,21.98
2022-09-01T18:18:35.311Z,21.90
2022-09-01T18:21:05.110Z,21.81
2022-09-01T18:23:37.884Z,21.77
2022-09-01T18:26:20.678Z,21.70
2022-09-01T18:28:51.959Z,21.49
2022-09-01T18:31:33.850Z,21.59
2022-09-01T18:34:12.537Z,21.53
2022-09-01T18:36:50.474Z,21.31
2022-09-01T18:39:38.361Z,21.35
2022-09-01T18:42:16.796Z,21.04
2022-09-01T18:44:51.217Z,21.15
2022-09-01T18:47:29.910Z,21.05
2022-09-01T18:50:17.805Z,21.07
2022-09-01T18:52:51.653Z,21.01
2022-09-01T18:55:22.828Z,20.82
2022-09-01T18:57:56.472Z,20.94
2022-09-01T19:00:47.878Z,20.73
2022-09-01T19:03:54.126Z,20.83
2022-09-01T19:06:26.828Z,20.78
2022-09-01T19:09:02.354Z,20.77
2022-09-01T19:11:34.713Z,20.72
2022-09-01T19:14:42.427Z,20.69
2022-09-01T19:17:34.045Z,20.62
2022-09-01T19:20:19.461Z,20.57
2022-09-01T19:23:12.235Z,20.51
2022-09-01T19:25:41.885Z,20.39
2022-09-01T19:28:17.849Z,20.46
2022-09-01T19:30:50.291Z,20.41
2022-09-01T19:33:25.289Z,20.38
2022-09-01T19:35:55.984Z,20.28
2022-09-01T19:38:27.821Z,20.32
2022-09-01T19:41:08.218Z,20.28
2022-09-01T19:43:37.193Z,20.26
2022-09-01T19:46:16.450Z,20.05
2022-09-01T19:48:52.115Z,20.07
2022-09-01T19:51:26.208Z,20.09
2022-09-01T19:54:09.048Z,20.02
2022-09-01T19:57:06.168Z,19.96
2022-09-01T19:59:39.219Z,19.89
2022-09-01T20:02:21.029Z,19.94
2022-09-01T20:04:53.595Z,19.94
2022-09-01T20:07:50.820Z,19.84
2022-09-01T20:10:17.902Z,19.91
2022-09-01T20:13:16.638Z,19.87
2022-09-01T20:15:51.450Z,19.80
2022-09-01T20:18:49.171Z,19.81
2022-09-01T20:21:21.301Z,19.76
2022-09-01T20:24:03.479Z,19.75
2022-09-01T20:27:05.374Z,19.73
2022-09-01T20:29:58.176Z,19.67
2022-09-01T20:32:38.920Z,19.71
2022-09-01T20:35:21.103Z,19.77
2022-09-01T20:37:59.207Z,19.72
2022-09-01T20:40:34.733Z,19.70
2022-09-01T20:43:04.598Z,19.67
2022-09-01T20:45:31.984Z,19.43
2022-09-01T20:48:12.921Z,19.58
2022-09-01T20:50:43.386Z,19.53
2022-09-01T20:53:13.501Z,19.50
2022-09-01T20:55:44.071Z,19.46
2022-09-01T20:58:19.990Z,19.38
2022-09-01T21:01:19.501Z,19.33
2022-09-01T21:04:05.899Z,19.29
2022-09-01T21:06:49.082Z,19.22
2022-09-01T21:09:29.763Z,19.10
2022-09-01T21:12:02.541Z,19.18
2022-09-01T21:14:39.638Z,19.17
2022-09-01T21:17:24.819Z,19.16
2022-09-01T21:19:57.314Z,19.09
2022-09-01T21:22:24.100Z,19.06
2022-09-01T21:24:51.206Z,19.05
2022-09-01T21:27:28.779Z,18.95
2022-09-01T21:30:00.907Z,19.01
2022-09-01T21:32:30.717Z,18.91
2022-09-01T21:34:58.497Z,18.82
2022-09-01T21:37:26.690Z,18.98
2022-09-01T21:39:54.548Z,18.95
2022-09-01T21:42:45.361Z,18.93
2022-09-01T21:45:15.352Z,18.89
2022-09-01T21:47:43.732Z,18.86
2022-09-01T21:50:11.257Z,18.77
2022-09-01T21:52:38.434Z,18.82
2022-09-01T21:55:06.642Z,18.80
2022-09-01T21:57:33.451Z,18.64
2022-09-01T22:00:04.969Z,18.80
2022-09-01T22:02:41.910Z,18.70
2022-09-01T22:05:09.866Z,18.77
2022-09-01T22:07:40.480Z,18.73
2022-09-01T22:10:10.721Z,18.63
2022-09-01T22:12:39.458Z,18.72
2022-09-01T22:15:09.251Z,18.65
2022-09-01T22:17:36.157Z,18.65
2022-09-01T22:20:05.720Z,18.55
2022-09-01T22:22:33.749Z,18.60
2022-09-01T22:25:05.046Z,18.57
2022-09-01T22:27:31.780Z,18.56
2022-09-01T22:29:58.604Z,18.52
2022-09-01T22:32:27.790Z,18.26
2022-09-01T22:34:56.621Z,18.41
2022-09-01T22:37:23.399Z,18.36
2022-09-01T22:39:50.214Z,18.29
2022-09-01T22:42:17.005Z,18.19
2022-09-01T22:44:43.758Z,18.17
2022-09-01T22:47:13.296Z,18.01
2022-09-01T22:49:40.086Z,18.12
2022-09-01T22:52:06.880Z,18.22
2022-09-01T22:54:33.753Z,18.15
2022-09-01T22:57:02.225Z,18.20
2022-09-01T22:59:29.029Z,18.19
2022-09-01T23:01:56.957Z,18.07
2022-09-01T23:04:24.959Z,18.13
2022-09-01T23:06:53.891Z,18.11
2022-09-01T23:09:21.485Z,18.05
2022-09-01T23:11:49.065Z,17.95
2022-09-01T23:14:16.455Z,17.89
2022-09-01T23:16:43.274Z,17.90
2022-09-01T23:19:10.092Z,17.95
2022-09-01T23:21:38.176Z,17.88
2022-09-01T23:24:05.930Z,17.87
2022-09-01T23:26:33.419Z,17.90
2022-09-01T23:29:01.023Z,17.86
2022-09-01T23:31:33.506Z,17.88
2022-09-01T23:34:00.411Z,17.79
2022-09-01T23:36:28.788Z,17.77
2022-09-01T23:38:56.315Z,17.73
2022-09-01T23:41:31.077Z,17.85
2022-09-01T23:44:01.432Z,17.82
2022-09-01T23:46:34.370Z,17.79
2022-09-01T23:49:02.133Z,17.73
2022-09-01T23:51:29.890Z,17.74
2022-09-01T23:53:56.957Z,17.75
2022-09-01T23:56:26.544Z,17.68
2022-09-01T23:58:54.550Z,17.68
